createdAt,value
2022-11-20T00:02:42.890Z,100054.34
2022-11-20T00:07:44.609Z,100052.56
2022-11-20T00:12:46.032Z,100043.06
2022-11-20T00:17:47.412Z,100044.22
2022-11-20T00:22:48.803Z,100039.88
2022-11-20T00:27:50.236Z,100041.91
2022-11-20T00:32:51.686Z,100033.91
2022-11-20T00:37:53.260Z,100032.59
2022-11-20T00:42:54.642Z,100034.81
2022-11-20T00:47:56.055Z,100046.59
2022-11-20T00:52:57.533Z,100042.81
2022-11-20T00:58:02.421Z,100032.59
2022-11-20T01:03:05.755Z,100028.63
2022-11-20T01:08:07.248Z,100032.31
2022-11-20T01:13:08.675Z,100031.97
2022-11-20T01:18:10.164Z,100032.59
2022-11-20T01:23:11.557Z,100019.94
2022-11-20T01:28:13.053Z,100028.41
2022-11-20T01:33:14.413Z,100034.25
2022-11-20T01:38:17.020Z,100022.22
2022-11-20T01:43:20.524Z,100017.09
2022-11-20T01:48:24.684Z,100016.81
2022-11-20T01:53:31.662Z,100010.44
2022-11-20T01:58:36.494Z,100016.19
2022-11-20T02:03:38.078Z,100008.66
2022-11-20T02:08:39.707Z,100009.78
2022-11-20T02:13:42.097Z,100017.25
2022-11-20T02:18:45.256Z,100008.94
2022-11-20T02:23:52.750Z,100015.75
2022-11-20T02:28:55.249Z,100004.47
2022-11-20T02:33:59.685Z,100006.13
2022-11-20T02:39:01.218Z,100004.75
2022-11-20T02:44:03.493Z,100006.88
2022-11-20T02:49:06.148Z,99994.63
2022-11-20T02:54:07.552Z,99995.44
2022-11-20T02:59:09.193Z,99993.66
2022-11-20T03:04:10.754Z,99993.13
2022-11-20T03:09:12.578Z,99987.88
2022-11-20T03:14:14.101Z,99988.63
2022-11-20T03:19:15.836Z,99981.84
2022-11-20T03:24:17.391Z,99973.66
2022-11-20T03:29:19.261Z,99965.28
2022-11-20T03:34:20.985Z,99971.03
2022-11-20T03:39:22.565Z,99962.75
2022-11-20T03:44:24.326Z,99969.97
2022-11-20T03:49:26.009Z,99966.22
2022-11-20T03:54:27.375Z,99960.66
2022-11-20T03:59:28.805Z,99956.56
2022-11-20T04:04:30.345Z,99967.38
2022-11-20T04:09:31.780Z,99964.88
2022-11-20T04:14:33.240Z,99966.31
2022-11-20T04:19:34.689Z,99974.59
2022-11-20T04:24:36.215Z,99964.16
2022-11-20T04:29:37.660Z,99961.81
2022-11-20T04:34:39.102Z,99955.97
2022-11-20T04:39:40.536Z,99954.28
2022-11-20T04:44:41.990Z,99946.13
2022-11-20T04:49:43.492Z,99948.31
2022-11-20T04:54:44.975Z,99948.31
2022-11-20T04:59:46.537Z,99950.31
2022-11-20T05:04:48.587Z,99961.28
2022-11-20T05:09:49.988Z,99951.88
2022-11-20T05:14:51.385Z,99957.66
2022-11-20T05:19:53.299Z,99954.59
2022-11-20T05:24:54.827Z,99953.88
2022-11-20T05:29:56.296Z,99945.81
2022-11-20T05:34:57.739Z,99962.44
2022-11-20T05:39:59.458Z,99950.50
2022-11-20T05:45:02.129Z,99945.81
2022-11-20T05:50:03.838Z,99946.34
2022-11-20T05:55:05.824Z,99945.91
2022-11-20T06:00:08.037Z,99942.34
2022-11-20T06:05:09.698Z,99937.31
2022-11-20T06:10:11.179Z,99950.28
2022-11-20T06:15:12.621Z,99948.81
2022-11-20T06:20:14.273Z,99948.19
2022-11-20T06:25:15.747Z,99945.78
2022-11-20T06:30:17.134Z,99947.03
2022-11-20T06:35:18.574Z,99949.34
2022-11-20T06:40:20.390Z,99945.47
2022-11-20T06:45:22.351Z,99940.13
2022-11-20T06:50:23.807Z,99953.34
2022-11-20T06:55:25.276Z,99961.00
2022-11-20T07:00:26.708Z,99959.00
2022-11-20T07:05:28.204Z,99964.56
2022-11-20T07:10:29.798Z,99964.22
2022-11-20T07:15:31.501Z,99964.56
2022-11-20T07:20:32.965Z,99975.03
2022-11-20T07:25:34.577Z,99969.56
2022-11-20T07:30:36.065Z,99972.41
2022-11-20T07:35:37.481Z,99975.53
2022-11-20T07:40:38.960Z,99980.78
2022-11-20T07:45:40.450Z,99988.00
2022-11-20T07:50:41.898Z,99993.75
2022-11-20T07:55:43.379Z,99997.97
2022-11-20T08:00:44.867Z,99999.13
2022-11-20T08:05:46.303Z,100003.72
2022-11-20T08:10:47.727Z,100001.63
2022-11-20T08:15:50.893Z,100006.56
2022-11-20T08:20:52.360Z,100017.13
2022-11-20T08:25:53.834Z,100017.44
2022-11-20T08:31:00.943Z,100011.84
2022-11-20T08:36:04.389Z,100022.97
2022-11-20T08:41:06.749Z,100026.75
2022-11-20T08:46:08.284Z,100013.59
2022-11-20T08:51:09.985Z,100025.44
2022-11-20T08:56:11.466Z,100021.25
2022-11-20T09:01:13.000Z,100018.09
2022-11-20T09:06:15.123Z,100027.31
2022-11-20T09:11:16.555Z,100031.94
2022-11-20T09:16:18.201Z,100023.44
2022-11-20T09:21:19.687Z,100026.78
2022-11-20T09:26:21.246Z,100021.59
2022-11-20T09:31:24.593Z,100021.66
2022-11-20T09:36:26.098Z,100027.53
2022-11-20T09:41:53.493Z,100019.00
2022-11-20T09:47:04.879Z,100022.56
2022-11-20T09:52:37.840Z,100011.41
2022-11-20T09:57:43.447Z,100007.72
2022-11-20T10:02:56.705Z,100004.56
2022-11-20T10:08:16.577Z,99997.53
2022-11-20T10:13:29.948Z,100006.03
2022-11-20T10:18:49.460Z,100002.69
2022-11-20T10:24:03.014Z,99995.06
2022-11-20T10:29:16.598Z,99979.66
2022-11-20T10:34:27.264Z,99969.03
2022-11-20T10:39:51.083Z,99968.25
2022-11-20T10:45:02.774Z,99970.41
2022-11-20T10:50:12.211Z,99963.31
2022-11-20T10:55:19.572Z,99956.50
2022-11-20T11:00:21.080Z,99952.41
2022-11-20T11:05:49.768Z,99946.00
2022-11-20T11:10:57.449Z,99936.91
2022-11-20T11:15:59.285Z,99926.31
2022-11-20T11:21:03.344Z,99924.38
2022-11-20T11:26:07.663Z,99919.25
2022-11-20T11:31:09.146Z,99904.78
2022-11-20T11:36:24.015Z,99900.25
2022-11-20T11:41:30.558Z,99899.03
2022-11-20T11:46:34.584Z,99890.06
2022-11-20T11:51:42.886Z,99889.00
2022-11-20T11:56:45.566Z,99880.13
2022-11-20T12:01:55.714Z,99873.44
2022-11-20T12:07:31.405Z,99862.59
2022-11-20T12:12:39.957Z,99870.88
2022-11-20T12:17:41.416Z,99856.53
2022-11-20T12:22:55.669Z,99852.91
2022-11-20T12:28:17.200Z,99845.81
2022-11-20T12:33:21.343Z,99834.03
2022-11-20T12:38:47.010Z,99823.56
2022-11-20T12:44:09.037Z,99819.38
2022-11-20T12:49:48.196Z,99815.03
2022-11-20T12:55:11.860Z,99802.31
2022-11-20T13:00:22.392Z,99800.63
2022-11-20T13:05:56.419Z,99796.63
2022-11-20T13:11:04.517Z,99798.22
2022-11-20T13:16:14.643Z,99782.44
2022-11-20T13:21:36.252Z,99781.16
2022-11-20T13:26:37.711Z,99777.34
2022-11-20T13:31:44.907Z,99778.13
2022-11-20T13:36:51.595Z,99770.38
2022-11-20T13:42:01.719Z,99767.94
2022-11-20T13:47:03.201Z,99754.06
2022-11-20T13:52:29.591Z,99754.84
2022-11-20T13:57:40.380Z,99740.44
2022-11-20T14:02:43.503Z,99743.00
2022-11-20T14:07:46.371Z,99732.41
2022-11-20T14:12:47.919Z,99730.91
2022-11-20T14:17:49.332Z,99724.63
2022-11-20T14:22:51.048Z,99719.38
2022-11-20T14:28:04.446Z,99715.50
2022-11-20T14:33:05.952Z,99707.22
2022-11-20T14:38:12.802Z,99704.72
2022-11-20T14:43:25.093Z,99708.72
2022-11-20T14:48:38.961Z,99700.66
2022-11-20T14:53:40.437Z,99697.03
2022-11-20T14:58:41.902Z,99680.53
2022-11-20T15:03:43.432Z,99678.88
2022-11-20T15:08:54.749Z,99677.22
2022-11-20T15:13:56.257Z,99681.16
2022-11-20T15:18:57.958Z,99683.78
2022-11-20T15:23:59.365Z,99673.63
2022-11-20T15:29:00.776Z,99671.69
2022-11-20T15:34:02.279Z,99664.50
2022-11-20T15:39:03.699Z,99661.19
2022-11-20T15:44:05.931Z,99668.63
2022-11-20T15:49:13.248Z,99662.78
2022-11-20T15:54:17.012Z,99648.41
2022-11-20T15:59:19.005Z,99637.34
2022-11-20T16:04:20.754Z,99631.78
2022-11-20T16:09:22.397Z,99624.47
2022-11-20T16:14:24.031Z,99632.31
2022-11-20T16:19:25.651Z,99622.91
2022-11-20T16:24:27.187Z,99605.53
2022-11-20T16:29:28.658Z,99596.16
2022-11-20T16:34:30.211Z,99593.72
2022-11-20T16:39:31.697Z,99583.31
2022-11-20T16:44:33.123Z,99574.31
2022-11-20T16:49:34.510Z,99560.63
2022-11-20T16:54:35.964Z,99545.78
2022-11-20T16:59:37.456Z,99543.69
2022-11-20T17:04:39.192Z,99540.94
2022-11-20T17:09:41.044Z,99533.34
2022-11-20T17:14:42.434Z,99541.78
2022-11-20T17:19:43.899Z,99533.50
2022-11-20T17:24:45.311Z,99525.06
2022-11-20T17:29:46.700Z,99519.91
2022-11-20T17:34:48.119Z,99504.94
2022-11-20T17:39:49.550Z,99508.25
2022-11-20T17:44:50.943Z,99502.19
2022-11-20T17:49:52.456Z,99498.28
2022-11-20T17:54:53.911Z,99494.13
2022-11-20T17:59:55.358Z,99486.97
2022-11-20T18:04:56.810Z,99485.16
2022-11-20T18:09:58.223Z,99492.56
2022-11-20T18:14:59.688Z,99499.56
2022-11-20T18:20:27.282Z,99495.69
2022-11-20T18:25:22.659Z,99494.84
2022-11-20T18:30:24.051Z,99487.31
2022-11-20T18:35:27.006Z,99474.72
2022-11-20T18:40:28.474Z,99457.88
2022-11-20T18:45:29.906Z,99456.63
2022-11-20T18:50:31.366Z,99455.63
2022-11-20T18:55:32.730Z,99442.56
2022-11-20T19:00:34.189Z,99446.88
2022-11-20T19:05:36.653Z,99437.63
2022-11-20T19:10:38.177Z,99424.63
2022-11-20T19:15:39.678Z,99410.50
2022-11-20T19:20:41.162Z,99414.91
2022-11-20T19:25:42.556Z,99412.97
2022-11-20T19:30:43.994Z,99411.88
2022-11-20T19:35:45.409Z,99413.78
2022-11-20T19:40:46.845Z,99392.06
2022-11-20T19:45:48.238Z,99389.53
2022-11-20T19:50:50.109Z,99391.22
2022-11-20T19:55:58.834Z,99384.69
2022-11-20T20:01:15.684Z,99376.94
2022-11-20T20:06:20.062Z,99376.09
2022-11-20T20:11:23.006Z,99366.16
2022-11-20T20:16:26.076Z,99382.75
2022-11-20T20:21:28.774Z,99389.38
2022-11-20T20:26:31.681Z,99389.38
2022-11-20T20:31:34.353Z,99390.59
2022-11-20T20:36:35.820Z,99392.75
2022-11-20T20:41:37.257Z,99393.59
2022-11-20T20:46:41.540Z,99407.59
2022-11-20T20:51:43.009Z,99405.66
2022-11-20T20:56:44.468Z,99415.66
2022-11-20T21:01:45.966Z,99419.00
2022-11-20T21:06:47.408Z,99429.94
2022-11-20T21:11:48.825Z,99429.03
2022-11-20T21:16:50.306Z,99446.88
2022-11-20T21:21:51.834Z,99429.19
2022-11-20T21:26:53.519Z,99397.09
2022-11-20T21:31:55.739Z,99407.75
2022-11-20T21:36:57.192Z,99408.56
2022-11-20T21:41:58.626Z,99421.84
2022-11-20T21:47:00.130Z,99416.56
2022-11-20T21:52:01.683Z,99398.94
2022-11-20T21:57:03.179Z,99389.72
2022-11-20T22:02:04.680Z,99390.53
2022-11-20T22:07:06.200Z,99399.06
2022-11-20T22:12:07.713Z,99396.72
2022-11-20T22:17:13.547Z,99406.63
2022-11-20T22:22:14.890Z,99392.81
2022-11-20T22:27:16.296Z,99404.47
2022-11-20T22:32:17.705Z,99402.69
2022-11-20T22:37:19.124Z,99408.22
2022-11-20T22:42:20.592Z,99419.56
2022-11-20T22:47:21.998Z,99424.66
2022-11-20T22:52:23.532Z,99415.13
2022-11-20T22:57:24.995Z,99426.16
2022-11-20T23:02:26.395Z,99434.91
2022-11-20T23:07:27.957Z,99423.78
2022-11-20T23:12:29.518Z,99434.28
2022-11-20T23:17:30.948Z,99437.88
2022-11-20T23:22:32.383Z,99437.03
2022-11-20T23:27:33.842Z,99434.09
2022-11-20T23:32:35.247Z,99437.25
2022-11-20T23:37:36.733Z,99435.00
2022-11-20T23:42:38.155Z,99445.31
2022-11-20T23:47:39.538Z,99443.78
2022-11-20T23:52:40.931Z,99426.16
2022-11-20T23:57:42.386Z,99430.78
